sensor_id;sensor_type;location;lat;lon;timestamp;P1;durP1;ratioP1;P2;durP2;ratioP2
41799;SDS011;27468;47.460;19.034;2023-05-10T00:01:45;3.63;;;1.30;;
41799;SDS011;27468;47.460;19.034;2023-05-10T00:04:11;1.80;;;1.23;;
41799;SDS011;27468;47.460;19.034;2023-05-10T00:06:36;2.60;;;1.40;;
41799;SDS011;27468;47.460;19.034;2023-05-10T00:09:01;2.10;;;1.52;;
41799;SDS011;27468;47.460;19.034;2023-05-10T00:11:28;3.15;;;1.48;;
41799;SDS011;27468;47.460;19.034;2023-05-10T00:13:53;2.83;;;1.70;;
41799;SDS011;27468;47.460;19.034;2023-05-10T00:16:19;2.03;;;1.40;;
41799;SDS011;27468;47.460;19.034;2023-05-10T00:18:44;2.38;;;1.40;;
41799;SDS011;27468;47.460;19.034;2023-05-10T00:21:10;2.05;;;1.40;;
41799;SDS011;27468;47.460;19.034;2023-05-10T00:23:35;2.95;;;1.73;;
41799;SDS011;27468;47.460;19.034;2023-05-10T00:26:01;2.90;;;1.88;;
41799;SDS011;27468;47.460;19.034;2023-05-10T00:28:27;2.35;;;1.25;;
41799;SDS011;27468;47.460;19.034;2023-05-10T00:30:53;1.88;;;1.50;;
41799;SDS011;27468;47.460;19.034;2023-05-10T00:33:18;2.45;;;1.58;;
41799;SDS011;27468;47.460;19.034;2023-05-10T00:35:44;2.03;;;1.38;;
41799;SDS011;27468;47.460;19.034;2023-05-10T00:38:10;3.45;;;1.50;;
41799;SDS011;27468;47.460;19.034;2023-05-10T00:40:36;2.92;;;1.52;;
41799;SDS011;27468;47.460;19.034;2023-05-10T00:43:02;2.28;;;1.45;;
41799;SDS011;27468;47.460;19.034;2023-05-10T00:45:28;1.45;;;1.33;;
41799;SDS011;27468;47.460;19.034;2023-05-10T00:47:56;1.48;;;1.00;;
41799;SDS011;27468;47.460;19.034;2023-05-10T00:50:22;2.22;;;1.30;;
41799;SDS011;27468;47.460;19.034;2023-05-10T00:52:48;2.78;;;1.50;;
41799;SDS011;27468;47.460;19.034;2023-05-10T00:55:14;1.35;;;1.17;;
41799;SDS011;27468;47.460;19.034;2023-05-10T00:57:39;2.05;;;1.48;;
41799;SDS011;27468;47.460;19.034;2023-05-10T01:00:06;3.00;;;1.40;;
41799;SDS011;27468;47.460;19.034;2023-05-10T01:02:33;1.70;;;1.27;;
41799;SDS011;27468;47.460;19.034;2023-05-10T01:04:59;2.65;;;1.67;;
41799;SDS011;27468;47.460;19.034;2023-05-10T01:07:26;2.03;;;1.50;;
41799;SDS011;27468;47.460;19.034;2023-05-10T01:09:51;2.35;;;1.15;;
41799;SDS011;27468;47.460;19.034;2023-05-10T01:12:17;2.65;;;1.40;;
41799;SDS011;27468;47.460;19.034;2023-05-10T01:14:43;3.15;;;1.73;;
41799;SDS011;27468;47.460;19.034;2023-05-10T01:17:08;3.17;;;1.67;;
41799;SDS011;27468;47.460;19.034;2023-05-10T01:19:36;2.83;;;1.50;;
41799;SDS011;27468;47.460;19.034;2023-05-10T01:22:10;2.72;;;1.67;;
41799;SDS011;27468;47.460;19.034;2023-05-10T01:43:26;3.30;;;1.80;;
41799;SDS011;27468;47.460;19.034;2023-05-10T01:48:22;2.30;;;1.60;;
41799;SDS011;27468;47.460;19.034;2023-05-10T01:50:52;2.60;;;1.80;;
41799;SDS011;27468;47.460;19.034;2023-05-10T01:53:18;4.35;;;1.80;;
41799;SDS011;27468;47.460;19.034;2023-05-10T01:55:49;4.30;;;1.73;;
41799;SDS011;27468;47.460;19.034;2023-05-10T01:58:30;3.65;;;2.13;;
41799;SDS011;27468;47.460;19.034;2023-05-10T02:00:58;2.80;;;1.60;;
41799;SDS011;27468;47.460;19.034;2023-05-10T02:03:26;3.47;;;1.70;;
41799;SDS011;27468;47.460;19.034;2023-05-10T02:05:53;2.75;;;1.60;;
41799;SDS011;27468;47.460;19.034;2023-05-10T02:08:21;2.80;;;1.88;;
41799;SDS011;27468;47.460;19.034;2023-05-10T02:10:47;3.10;;;1.67;;
41799;SDS011;27468;47.460;19.034;2023-05-10T02:13:15;4.35;;;1.60;;
41799;SDS011;27468;47.460;19.034;2023-05-10T02:15:41;3.15;;;1.80;;
41799;SDS011;27468;47.460;19.034;2023-05-10T02:18:08;2.88;;;1.95;;
41799;SDS011;27468;47.460;19.034;2023-05-10T02:20:35;3.00;;;1.95;;
41799;SDS011;27468;47.460;19.034;2023-05-10T02:23:02;3.08;;;1.88;;
41799;SDS011;27468;47.460;19.034;2023-05-10T02:25:28;3.13;;;1.90;;
41799;SDS011;27468;47.460;19.034;2023-05-10T02:27:56;2.72;;;1.50;;
41799;SDS011;27468;47.460;19.034;2023-05-10T02:30:24;2.63;;;1.67;;
41799;SDS011;27468;47.460;19.034;2023-05-10T02:32:50;3.17;;;1.80;;
41799;SDS011;27468;47.460;19.034;2023-05-10T02:35:17;3.13;;;1.60;;
41799;SDS011;27468;47.460;19.034;2023-05-10T02:37:43;2.90;;;2.03;;
41799;SDS011;27468;47.460;19.034;2023-05-10T02:40:11;3.75;;;1.80;;
41799;SDS011;27468;47.460;19.034;2023-05-10T02:42:41;2.47;;;1.50;;
41799;SDS011;27468;47.460;19.034;2023-05-10T02:45:11;2.67;;;1.77;;
41799;SDS011;27468;47.460;19.034;2023-05-10T02:47:38;3.10;;;1.73;;
41799;SDS011;27468;47.460;19.034;2023-05-10T02:50:04;2.58;;;1.80;;
41799;SDS011;27468;47.460;19.034;2023-05-10T02:52:44;3.05;;;1.70;;
41799;SDS011;27468;47.460;19.034;2023-05-10T02:57:49;1.92;;;1.40;;
41799;SDS011;27468;47.460;19.034;2023-05-10T03:02:44;2.58;;;1.55;;
41799;SDS011;27468;47.460;19.034;2023-05-10T03:05:09;2.63;;;1.80;;
41799;SDS011;27468;47.460;19.034;2023-05-10T03:07:35;3.30;;;1.80;;
41799;SDS011;27468;47.460;19.034;2023-05-10T03:10:01;3.20;;;1.73;;
41799;SDS011;27468;47.460;19.034;2023-05-10T03:15:47;2.10;;;1.38;;
41799;SDS011;27468;47.460;19.034;2023-05-10T03:18:21;2.65;;;1.65;;
41799;SDS011;27468;47.460;19.034;2023-05-10T03:20:48;3.15;;;2.00;;
41799;SDS011;27468;47.460;19.034;2023-05-10T03:23:25;2.40;;;1.92;;
41799;SDS011;27468;47.460;19.034;2023-05-10T03:25:55;3.45;;;2.17;;
41799;SDS011;27468;47.460;19.034;2023-05-10T03:28:20;4.30;;;2.15;;
41799;SDS011;27468;47.460;19.034;2023-05-10T03:30:47;3.95;;;2.17;;
41799;SDS011;27468;47.460;19.034;2023-05-10T03:33:14;3.22;;;2.08;;
41799;SDS011;27468;47.460;19.034;2023-05-10T03:35:39;2.28;;;1.60;;
41799;SDS011;27468;47.460;19.034;2023-05-10T03:38:04;3.58;;;1.88;;
41799;SDS011;27468;47.460;19.034;2023-05-10T03:40:30;3.35;;;2.13;;
41799;SDS011;27468;47.460;19.034;2023-05-10T03:42:57;4.68;;;2.10;;
41799;SDS011;27468;47.460;19.034;2023-05-10T03:45:23;3.72;;;2.22;;
41799;SDS011;27468;47.460;19.034;2023-05-10T03:47:50;3.47;;;1.83;;
41799;SDS011;27468;47.460;19.034;2023-05-10T03:50:16;4.55;;;2.00;;
41799;SDS011;27468;47.460;19.034;2023-05-10T03:52:41;3.15;;;2.08;;
41799;SDS011;27468;47.460;19.034;2023-05-10T03:55:06;3.28;;;1.80;;
41799;SDS011;27468;47.460;19.034;2023-05-10T03:57:32;3.75;;;2.00;;
41799;SDS011;27468;47.460;19.034;2023-05-10T03:59:58;2.90;;;1.90;;
41799;SDS011;27468;47.460;19.034;2023-05-10T04:02:23;3.80;;;1.75;;
41799;SDS011;27468;47.460;19.034;2023-05-10T04:04:49;3.22;;;1.65;;
41799;SDS011;27468;47.460;19.034;2023-05-10T04:07:14;4.40;;;2.17;;
41799;SDS011;27468;47.460;19.034;2023-05-10T04:09:40;2.08;;;1.65;;
41799;SDS011;27468;47.460;19.034;2023-05-10T04:12:05;3.55;;;2.17;;
41799;SDS011;27468;47.460;19.034;2023-05-10T04:14:31;3.05;;;1.90;;
41799;SDS011;27468;47.460;19.034;2023-05-10T04:16:56;3.05;;;2.25;;
41799;SDS011;27468;47.460;19.034;2023-05-10T04:19:22;3.25;;;2.22;;
41799;SDS011;27468;47.460;19.034;2023-05-10T04:21:48;3.30;;;2.03;;
41799;SDS011;27468;47.460;19.034;2023-05-10T04:24:13;3.40;;;2.10;;
41799;SDS011;27468;47.460;19.034;2023-05-10T04:26:38;3.40;;;2.00;;
41799;SDS011;27468;47.460;19.034;2023-05-10T04:29:04;3.00;;;2.00;;
41799;SDS011;27468;47.460;19.034;2023-05-10T04:31:29;3.15;;;2.25;;
41799;SDS011;27468;47.460;19.034;2023-05-10T04:33:55;3.47;;;2.17;;
41799;SDS011;27468;47.460;19.034;2023-05-10T04:36:20;3.17;;;1.83;;
41799;SDS011;27468;47.460;19.034;2023-05-10T04:38:46;3.35;;;2.03;;
41799;SDS011;27468;47.460;19.034;2023-05-10T04:41:11;4.25;;;2.00;;
41799;SDS011;27468;47.460;19.034;2023-05-10T04:43:37;3.72;;;1.90;;
41799;SDS011;27468;47.460;19.034;2023-05-10T04:46:03;3.25;;;2.22;;
41799;SDS011;27468;47.460;19.034;2023-05-10T04:48:30;3.00;;;2.10;;
41799;SDS011;27468;47.460;19.034;2023-05-10T04:50:55;2.58;;;1.75;;
41799;SDS011;27468;47.460;19.034;2023-05-10T04:53:21;2.35;;;2.03;;
41799;SDS011;27468;47.460;19.034;2023-05-10T04:55:47;2.92;;;1.80;;
41799;SDS011;27468;47.460;19.034;2023-05-10T04:58:13;2.72;;;1.95;;
41799;SDS011;27468;47.460;19.034;2023-05-10T05:00:38;3.40;;;1.90;;
41799;SDS011;27468;47.460;19.034;2023-05-10T05:03:04;2.72;;;2.45;;
41799;SDS011;27468;47.460;19.034;2023-05-10T05:05:30;3.25;;;1.90;;
41799;SDS011;27468;47.460;19.034;2023-05-10T05:07:55;4.20;;;2.03;;
41799;SDS011;27468;47.460;19.034;2023-05-10T05:10:21;3.30;;;2.30;;
41799;SDS011;27468;47.460;19.034;2023-05-10T05:12:46;4.65;;;2.42;;
41799;SDS011;27468;47.460;19.034;2023-05-10T05:15:12;3.47;;;2.10;;
41799;SDS011;27468;47.460;19.034;2023-05-10T05:17:37;3.25;;;2.10;;
41799;SDS011;27468;47.460;19.034;2023-05-10T05:20:03;3.03;;;2.50;;
41799;SDS011;27468;47.460;19.034;2023-05-10T05:22:28;3.00;;;2.40;;
41799;SDS011;27468;47.460;19.034;2023-05-10T05:24:54;3.72;;;2.30;;
41799;SDS011;27468;47.460;19.034;2023-05-10T05:27:20;4.05;;;2.33;;
41799;SDS011;27468;47.460;19.034;2023-05-10T05:29:49;3.58;;;2.60;;
41799;SDS011;27468;47.460;19.034;2023-05-10T05:32:16;2.88;;;2.28;;
41799;SDS011;27468;47.460;19.034;2023-05-10T05:34:41;3.28;;;2.15;;
41799;SDS011;27468;47.460;19.034;2023-05-10T05:37:07;3.50;;;2.30;;
41799;SDS011;27468;47.460;19.034;2023-05-10T05:39:32;3.75;;;2.33;;
41799;SDS011;27468;47.460;19.034;2023-05-10T05:41:58;3.47;;;2.60;;
41799;SDS011;27468;47.460;19.034;2023-05-10T05:44:26;3.70;;;2.40;;
41799;SDS011;27468;47.460;19.034;2023-05-10T05:46:53;4.18;;;2.65;;
41799;SDS011;27468;47.460;19.034;2023-05-10T05:49:19;3.75;;;2.40;;
41799;SDS011;27468;47.460;19.034;2023-05-10T05:51:44;4.35;;;2.47;;
41799;SDS011;27468;47.460;19.034;2023-05-10T05:54:09;3.45;;;2.70;;
41799;SDS011;27468;47.460;19.034;2023-05-10T05:56:35;2.35;;;2.15;;
41799;SDS011;27468;47.460;19.034;2023-05-10T05:59:00;3.53;;;2.30;;
41799;SDS011;27468;47.460;19.034;2023-05-10T06:01:26;3.05;;;2.10;;
41799;SDS011;27468;47.460;19.034;2023-05-10T06:03:51;2.95;;;2.08;;
41799;SDS011;27468;47.460;19.034;2023-05-10T06:06:17;3.67;;;2.30;;
41799;SDS011;27468;47.460;19.034;2023-05-10T06:08:42;4.32;;;3.05;;
41799;SDS011;27468;47.460;19.034;2023-05-10T06:11:07;3.97;;;1.90;;
41799;SDS011;27468;47.460;19.034;2023-05-10T06:13:33;2.60;;;2.15;;
41799;SDS011;27468;47.460;19.034;2023-05-10T06:16:00;5.00;;;2.78;;
41799;SDS011;27468;47.460;19.034;2023-05-10T06:18:26;3.00;;;1.90;;
41799;SDS011;27468;47.460;19.034;2023-05-10T06:20:51;3.40;;;2.10;;
41799;SDS011;27468;47.460;19.034;2023-05-10T06:23:17;2.50;;;1.85;;
41799;SDS011;27468;47.460;19.034;2023-05-10T06:25:42;2.78;;;1.90;;
41799;SDS011;27468;47.460;19.034;2023-05-10T06:28:08;3.50;;;2.33;;
41799;SDS011;27468;47.460;19.034;2023-05-10T06:30:33;2.45;;;2.00;;
41799;SDS011;27468;47.460;19.034;2023-05-10T06:33:00;3.40;;;2.30;;
41799;SDS011;27468;47.460;19.034;2023-05-10T06:35:26;3.83;;;2.20;;
41799;SDS011;27468;47.460;19.034;2023-05-10T06:37:51;3.33;;;2.10;;
41799;SDS011;27468;47.460;19.034;2023-05-10T06:40:16;3.22;;;2.33;;
41799;SDS011;27468;47.460;19.034;2023-05-10T06:42:42;3.50;;;2.08;;
41799;SDS011;27468;47.460;19.034;2023-05-10T06:45:09;2.63;;;1.70;;
41799;SDS011;27468;47.460;19.034;2023-05-10T06:47:35;2.75;;;1.90;;
41799;SDS011;27468;47.460;19.034;2023-05-10T06:50:01;3.47;;;2.20;;
41799;SDS011;27468;47.460;19.034;2023-05-10T06:52:26;2.38;;;1.85;;
41799;SDS011;27468;47.460;19.034;2023-05-10T06:54:51;3.05;;;2.10;;
41799;SDS011;27468;47.460;19.034;2023-05-10T06:57:17;5.47;;;2.25;;
41799;SDS011;27468;47.460;19.034;2023-05-10T06:59:43;2.97;;;2.13;;
41799;SDS011;27468;47.460;19.034;2023-05-10T07:02:08;2.97;;;1.90;;
41799;SDS011;27468;47.460;19.034;2023-05-10T07:04:34;3.63;;;2.13;;
41799;SDS011;27468;47.460;19.034;2023-05-10T07:06:59;3.58;;;2.15;;
41799;SDS011;27468;47.460;19.034;2023-05-10T07:09:24;2.95;;;1.83;;
41799;SDS011;27468;47.460;19.034;2023-05-10T07:11:50;3.63;;;2.00;;
41799;SDS011;27468;47.460;19.034;2023-05-10T07:14:15;3.45;;;2.03;;
41799;SDS011;27468;47.460;19.034;2023-05-10T07:16:40;4.18;;;2.30;;
41799;SDS011;27468;47.460;19.034;2023-05-10T07:19:06;2.25;;;1.80;;
41799;SDS011;27468;47.460;19.034;2023-05-10T07:21:32;3.72;;;2.15;;
41799;SDS011;27468;47.460;19.034;2023-05-10T07:23:57;3.53;;;2.33;;
41799;SDS011;27468;47.460;19.034;2023-05-10T07:26:23;3.63;;;2.42;;
41799;SDS011;27468;47.460;19.034;2023-05-10T07:28:49;3.08;;;2.08;;
41799;SDS011;27468;47.460;19.034;2023-05-10T07:31:14;4.07;;;2.22;;
41799;SDS011;27468;47.460;19.034;2023-05-10T07:33:40;2.58;;;1.92;;
41799;SDS011;27468;47.460;19.034;2023-05-10T07:36:05;5.32;;;2.00;;
41799;SDS011;27468;47.460;19.034;2023-05-10T07:38:31;2.85;;;2.05;;
41799;SDS011;27468;47.460;19.034;2023-05-10T07:40:56;2.22;;;1.70;;
41799;SDS011;27468;47.460;19.034;2023-05-10T07:43:22;2.25;;;1.70;;
41799;SDS011;27468;47.460;19.034;2023-05-10T07:45:47;3.05;;;1.60;;
41799;SDS011;27468;47.460;19.034;2023-05-10T07:48:12;2.45;;;1.67;;
41799;SDS011;27468;47.460;19.034;2023-05-10T07:50:38;2.95;;;1.85;;
41799;SDS011;27468;47.460;19.034;2023-05-10T07:53:03;2.17;;;1.70;;
41799;SDS011;27468;47.460;19.034;2023-05-10T07:55:28;2.40;;;1.65;;
41799;SDS011;27468;47.460;19.034;2023-05-10T07:57:54;2.92;;;1.73;;
41799;SDS011;27468;47.460;19.034;2023-05-10T08:00:19;2.22;;;1.77;;
41799;SDS011;27468;47.460;19.034;2023-05-10T08:02:45;3.53;;;2.13;;
41799;SDS011;27468;47.460;19.034;2023-05-10T08:05:11;3.50;;;1.95;;
41799;SDS011;27468;47.460;19.034;2023-05-10T08:07:37;2.15;;;1.90;;
41799;SDS011;27468;47.460;19.034;2023-05-10T08:10:02;2.10;;;1.80;;
41799;SDS011;27468;47.460;19.034;2023-05-10T08:12:28;3.15;;;1.80;;
41799;SDS011;27468;47.460;19.034;2023-05-10T08:14:54;3.08;;;2.00;;
41799;SDS011;27468;47.460;19.034;2023-05-10T08:17:19;1.95;;;1.52;;
41799;SDS011;27468;47.460;19.034;2023-05-10T08:19:45;2.85;;;1.73;;
41799;SDS011;27468;47.460;19.034;2023-05-10T08:22:10;3.28;;;2.30;;
41799;SDS011;27468;47.460;19.034;2023-05-10T08:24:35;2.75;;;1.90;;
41799;SDS011;27468;47.460;19.034;2023-05-10T08:27:04;2.78;;;1.80;;
41799;SDS011;27468;47.460;19.034;2023-05-10T08:29:30;3.67;;;1.95;;
41799;SDS011;27468;47.460;19.034;2023-05-10T08:31:55;2.38;;;1.60;;
41799;SDS011;27468;47.460;19.034;2023-05-10T08:34:21;2.92;;;1.75;;
41799;SDS011;27468;47.460;19.034;2023-05-10T08:36:46;2.20;;;1.60;;
41799;SDS011;27468;47.460;19.034;2023-05-10T08:39:12;2.95;;;2.00;;
41799;SDS011;27468;47.460;19.034;2023-05-10T08:41:38;2.08;;;1.65;;
41799;SDS011;27468;47.460;19.034;2023-05-10T08:44:05;2.00;;;1.80;;
41799;SDS011;27468;47.460;19.034;2023-05-10T08:46:33;2.45;;;1.98;;
41799;SDS011;27468;47.460;19.034;2023-05-10T08:49:03;2.55;;;1.90;;
41799;SDS011;27468;47.460;19.034;2023-05-10T08:51:29;2.58;;;1.80;;
41799;SDS011;27468;47.460;19.034;2023-05-10T08:54:00;2.22;;;1.73;;
41799;SDS011;27468;47.460;19.034;2023-05-10T08:56:26;3.30;;;2.10;;
41799;SDS011;27468;47.460;19.034;2023-05-10T08:58:51;1.73;;;1.50;;
41799;SDS011;27468;47.460;19.034;2023-05-10T09:01:17;1.83;;;1.55;;
41799;SDS011;27468;47.460;19.034;2023-05-10T09:03:43;2.17;;;1.40;;
41799;SDS011;27468;47.460;19.034;2023-05-10T09:06:11;2.10;;;1.50;;
41799;SDS011;27468;47.460;19.034;2023-05-10T09:08:38;2.67;;;1.73;;
41799;SDS011;27468;47.460;19.034;2023-05-10T09:11:05;2.15;;;1.38;;
41799;SDS011;27468;47.460;19.034;2023-05-10T09:13:31;3.58;;;1.85;;
41799;SDS011;27468;47.460;19.034;2023-05-10T09:15:57;2.10;;;1.70;;
41799;SDS011;27468;47.460;19.034;2023-05-10T09:18:23;2.65;;;1.80;;
41799;SDS011;27468;47.460;19.034;2023-05-10T09:20:48;2.22;;;1.70;;
41799;SDS011;27468;47.460;19.034;2023-05-10T09:23:14;1.77;;;1.40;;
41799;SDS011;27468;47.460;19.034;2023-05-10T09:25:41;2.25;;;1.70;;
41799;SDS011;27468;47.460;19.034;2023-05-10T09:28:07;2.00;;;1.63;;
41799;SDS011;27468;47.460;19.034;2023-05-10T09:30:33;1.83;;;1.40;;
41799;SDS011;27468;47.460;19.034;2023-05-10T09:33:00;2.58;;;1.65;;
41799;SDS011;27468;47.460;19.034;2023-05-10T09:35:27;2.70;;;1.75;;
41799;SDS011;27468;47.460;19.034;2023-05-10T09:37:54;2.72;;;1.95;;
41799;SDS011;27468;47.460;19.034;2023-05-10T09:40:22;2.70;;;1.90;;
41799;SDS011;27468;47.460;19.034;2023-05-10T09:45:20;2.90;;;2.03;;
41799;SDS011;27468;47.460;19.034;2023-05-10T09:47:46;3.00;;;1.80;;
41799;SDS011;27468;47.460;19.034;2023-05-10T09:50:12;2.20;;;1.65;;
41799;SDS011;27468;47.460;19.034;2023-05-10T09:55:12;2.53;;;1.67;;
41799;SDS011;27468;47.460;19.034;2023-05-10T09:57:37;2.35;;;1.60;;
41799;SDS011;27468;47.460;19.034;2023-05-10T10:00:04;1.67;;;1.45;;
41799;SDS011;27468;47.460;19.034;2023-05-10T10:02:31;1.88;;;1.40;;
41799;SDS011;27468;47.460;19.034;2023-05-10T10:04:56;2.70;;;1.70;;
41799;SDS011;27468;47.460;19.034;2023-05-10T10:07:22;2.42;;;1.58;;
41799;SDS011;27468;47.460;19.034;2023-05-10T10:09:52;2.42;;;1.55;;
41799;SDS011;27468;47.460;19.034;2023-05-10T10:12:18;1.48;;;1.35;;
41799;SDS011;27468;47.460;19.034;2023-05-10T10:14:45;1.88;;;1.30;;
41799;SDS011;27468;47.460;19.034;2023-05-10T10:17:15;1.77;;;1.55;;
41799;SDS011;27468;47.460;19.034;2023-05-10T10:19:41;2.50;;;1.70;;
41799;SDS011;27468;47.460;19.034;2023-05-10T10:22:07;1.83;;;1.60;;
41799;SDS011;27468;47.460;19.034;2023-05-10T10:24:32;2.15;;;1.35;;
41799;SDS011;27468;47.460;19.034;2023-05-10T10:27:04;2.50;;;1.70;;
41799;SDS011;27468;47.460;19.034;2023-05-10T10:29:47;1.80;;;1.25;;
41799;SDS011;27468;47.460;19.034;2023-05-10T10:32:30;1.90;;;1.38;;
41799;SDS011;27468;47.460;19.034;2023-05-10T10:35:17;2.97;;;1.27;;
41799;SDS011;27468;47.460;19.034;2023-05-10T10:37:43;1.50;;;1.20;;
41799;SDS011;27468;47.460;19.034;2023-05-10T10:40:28;1.67;;;1.30;;
41799;SDS011;27468;47.460;19.034;2023-05-10T10:42:55;1.98;;;1.20;;
41799;SDS011;27468;47.460;19.034;2023-05-10T10:45:22;2.05;;;1.42;;
41799;SDS011;27468;47.460;19.034;2023-05-10T10:47:49;1.77;;;1.20;;
41799;SDS011;27468;47.460;19.034;2023-05-10T10:50:44;1.60;;;1.38;;
41799;SDS011;27468;47.460;19.034;2023-05-10T10:53:13;1.25;;;1.00;;
41799;SDS011;27468;47.460;19.034;2023-05-10T10:55:45;2.15;;;1.20;;
41799;SDS011;27468;47.460;19.034;2023-05-10T10:58:18;2.75;;;1.20;;
41799;SDS011;27468;47.460;19.034;2023-05-10T11:03:39;2.58;;;1.30;;
41799;SDS011;27468;47.460;19.034;2023-05-10T11:06:04;2.03;;;1.50;;
41799;SDS011;27468;47.460;19.034;2023-05-10T11:08:31;1.92;;;1.00;;
41799;SDS011;27468;47.460;19.034;2023-05-10T11:15:59;1.50;;;1.10;;
41799;SDS011;27468;47.460;19.034;2023-05-10T11:18:36;3.65;;;1.23;;
41799;SDS011;27468;47.460;19.034;2023-05-10T11:21:02;1.17;;;1.05;;
41799;SDS011;27468;47.460;19.034;2023-05-10T11:23:47;1.23;;;1.13;;
41799;SDS011;27468;47.460;19.034;2023-05-10T11:26:14;1.27;;;1.00;;
41799;SDS011;27468;47.460;19.034;2023-05-10T11:31:08;1.60;;;0.90;;
41799;SDS011;27468;47.460;19.034;2023-05-10T11:33:47;1.25;;;1.02;;
41799;SDS011;27468;47.460;19.034;2023-05-10T11:36:18;1.92;;;0.90;;
41799;SDS011;27468;47.460;19.034;2023-05-10T11:38:48;1.10;;;1.00;;
41799;SDS011;27468;47.460;19.034;2023-05-10T11:41:15;1.25;;;1.15;;
41799;SDS011;27468;47.460;19.034;2023-05-10T11:43:42;0.98;;;0.90;;
41799;SDS011;27468;47.460;19.034;2023-05-10T11:46:09;1.10;;;0.88;;
41799;SDS011;27468;47.460;19.034;2023-05-10T11:48:36;1.83;;;1.00;;
41799;SDS011;27468;47.460;19.034;2023-05-10T11:51:04;0.73;;;0.70;;
41799;SDS011;27468;47.460;19.034;2023-05-10T11:53:30;1.33;;;1.00;;
41799;SDS011;27468;47.460;19.034;2023-05-10T11:56:03;1.40;;;0.98;;
41799;SDS011;27468;47.460;19.034;2023-05-10T11:58:33;1.08;;;0.90;;
41799;SDS011;27468;47.460;19.034;2023-05-10T12:00:59;1.00;;;0.90;;
41799;SDS011;27468;47.460;19.034;2023-05-10T12:03:26;2.10;;;1.10;;
41799;SDS011;27468;47.460;19.034;2023-05-10T12:05:52;1.60;;;0.90;;
41799;SDS011;27468;47.460;19.034;2023-05-10T12:08:22;1.08;;;0.98;;
41799;SDS011;27468;47.460;19.034;2023-05-10T12:10:49;1.33;;;1.00;;
41799;SDS011;27468;47.460;19.034;2023-05-10T12:13:15;1.20;;;1.00;;
41799;SDS011;27468;47.460;19.034;2023-05-10T12:15:41;1.20;;;0.93;;
41799;SDS011;27468;47.460;19.034;2023-05-10T12:18:08;1.15;;;1.08;;
41799;SDS011;27468;47.460;19.034;2023-05-10T12:20:35;1.20;;;0.80;;
41799;SDS011;27468;47.460;19.034;2023-05-10T12:23:01;1.33;;;0.90;;
41799;SDS011;27468;47.460;19.034;2023-05-10T12:25:35;1.58;;;1.25;;
41799;SDS011;27468;47.460;19.034;2023-05-10T12:28:06;1.45;;;1.20;;
41799;SDS011;27468;47.460;19.034;2023-05-10T12:30:33;1.40;;;0.98;;
41799;SDS011;27468;47.460;19.034;2023-05-10T12:33:00;1.67;;;1.10;;
41799;SDS011;27468;47.460;19.034;2023-05-10T12:35:52;1.33;;;1.00;;
41799;SDS011;27468;47.460;19.034;2023-05-10T12:38:29;2.42;;;1.10;;
41799;SDS011;27468;47.460;19.034;2023-05-10T12:40:59;0.90;;;0.90;;
41799;SDS011;27468;47.460;19.034;2023-05-10T12:43:25;1.08;;;0.95;;
41799;SDS011;27468;47.460;19.034;2023-05-10T12:45:51;1.10;;;1.00;;
41799;SDS011;27468;47.460;19.034;2023-05-10T12:48:16;0.90;;;0.85;;
41799;SDS011;27468;47.460;19.034;2023-05-10T12:50:42;0.80;;;0.75;;
41799;SDS011;27468;47.460;19.034;2023-05-10T12:53:07;1.13;;;1.02;;
41799;SDS011;27468;47.460;19.034;2023-05-10T12:55:33;1.45;;;0.95;;
41799;SDS011;27468;47.460;19.034;2023-05-10T12:57:58;1.27;;;1.02;;
41799;SDS011;27468;47.460;19.034;2023-05-10T13:00:24;1.20;;;0.88;;
41799;SDS011;27468;47.460;19.034;2023-05-10T13:02:49;2.33;;;1.00;;
41799;SDS011;27468;47.460;19.034;2023-05-10T13:05:15;0.80;;;0.70;;
41799;SDS011;27468;47.460;19.034;2023-05-10T13:07:40;1.25;;;0.93;;
41799;SDS011;27468;47.460;19.034;2023-05-10T13:10:06;1.02;;;0.90;;
41799;SDS011;27468;47.460;19.034;2023-05-10T13:12:36;1.30;;;0.82;;
41799;SDS011;27468;47.460;19.034;2023-05-10T13:15:02;0.80;;;0.80;;
41799;SDS011;27468;47.460;19.034;2023-05-10T13:17:28;3.50;;;0.88;;
41799;SDS011;27468;47.460;19.034;2023-05-10T13:19:53;1.23;;;0.80;;
41799;SDS011;27468;47.460;19.034;2023-05-10T13:22:19;1.20;;;0.85;;
41799;SDS011;27468;47.460;19.034;2023-05-10T13:24:44;1.25;;;0.90;;
41799;SDS011;27468;47.460;19.034;2023-05-10T13:27:10;1.50;;;0.80;;
41799;SDS011;27468;47.460;19.034;2023-05-10T13:29:35;0.70;;;0.70;;
41799;SDS011;27468;47.460;19.034;2023-05-10T13:32:01;2.53;;;1.33;;
41799;SDS011;27468;47.460;19.034;2023-05-10T13:34:26;1.20;;;1.10;;
41799;SDS011;27468;47.460;19.034;2023-05-10T13:36:52;1.73;;;1.10;;
41799;SDS011;27468;47.460;19.034;2023-05-10T13:39:19;0.85;;;0.80;;
41799;SDS011;27468;47.460;19.034;2023-05-10T13:41:45;1.00;;;0.75;;
41799;SDS011;27468;47.460;19.034;2023-05-10T13:44:12;1.20;;;0.82;;
41799;SDS011;27468;47.460;19.034;2023-05-10T13:46:38;1.42;;;0.60;;
41799;SDS011;27468;47.460;19.034;2023-05-10T13:49:04;1.02;;;0.80;;
41799;SDS011;27468;47.460;19.034;2023-05-10T13:51:29;1.38;;;0.90;;
41799;SDS011;27468;47.460;19.034;2023-05-10T13:53:56;3.13;;;0.98;;
41799;SDS011;27468;47.460;19.034;2023-05-10T13:56:22;1.38;;;0.98;;
41799;SDS011;27468;47.460;19.034;2023-05-10T13:58:47;0.80;;;0.70;;
41799;SDS011;27468;47.460;19.034;2023-05-10T14:01:13;1.73;;;0.70;;
41799;SDS011;27468;47.460;19.034;2023-05-10T14:03:38;0.75;;;0.70;;
41799;SDS011;27468;47.460;19.034;2023-05-10T14:06:04;0.63;;;0.60;;
41799;SDS011;27468;47.460;19.034;2023-05-10T14:08:29;1.00;;;0.60;;
41799;SDS011;27468;47.460;19.034;2023-05-10T14:10:55;0.80;;;0.52;;
41799;SDS011;27468;47.460;19.034;2023-05-10T14:13:21;1.02;;;0.70;;
41799;SDS011;27468;47.460;19.034;2023-05-10T14:15:47;1.23;;;0.80;;
41799;SDS011;27468;47.460;19.034;2023-05-10T14:18:12;1.40;;;0.70;;
41799;SDS011;27468;47.460;19.034;2023-05-10T14:20:38;0.77;;;0.60;;
41799;SDS011;27468;47.460;19.034;2023-05-10T14:23:03;0.85;;;0.63;;
41799;SDS011;27468;47.460;19.034;2023-05-10T14:25:28;0.60;;;0.60;;
41799;SDS011;27468;47.460;19.034;2023-05-10T14:27:54;0.65;;;0.65;;
41799;SDS011;27468;47.460;19.034;2023-05-10T14:30:19;0.70;;;0.70;;
41799;SDS011;27468;47.460;19.034;2023-05-10T14:32:45;2.33;;;1.10;;
41799;SDS011;27468;47.460;19.034;2023-05-10T14:35:11;0.75;;;0.65;;
41799;SDS011;27468;47.460;19.034;2023-05-10T14:37:37;0.70;;;0.70;;
41799;SDS011;27468;47.460;19.034;2023-05-10T14:40:03;0.75;;;0.75;;
41799;SDS011;27468;47.460;19.034;2023-05-10T14:42:29;1.35;;;1.13;;
41799;SDS011;27468;47.460;19.034;2023-05-10T14:44:56;0.75;;;0.75;;
41799;SDS011;27468;47.460;19.034;2023-05-10T14:47:21;1.20;;;0.82;;
41799;SDS011;27468;47.460;19.034;2023-05-10T14:49:47;1.17;;;0.88;;
41799;SDS011;27468;47.460;19.034;2023-05-10T14:52:12;0.60;;;0.60;;
41799;SDS011;27468;47.460;19.034;2023-05-10T14:54:39;0.60;;;0.60;;
41799;SDS011;27468;47.460;19.034;2023-05-10T14:57:05;1.02;;;0.68;;
41799;SDS011;27468;47.460;19.034;2023-05-10T14:59:31;1.30;;;0.98;;
41799;SDS011;27468;47.460;19.034;2023-05-10T15:01:56;0.73;;;0.73;;
41799;SDS011;27468;47.460;19.034;2023-05-10T15:04:22;0.93;;;0.70;;
41799;SDS011;27468;47.460;19.034;2023-05-10T15:06:47;1.30;;;0.90;;
41799;SDS011;27468;47.460;19.034;2023-05-10T15:09:13;0.95;;;0.68;;
41799;SDS011;27468;47.460;19.034;2023-05-10T15:11:38;0.88;;;0.70;;
41799;SDS011;27468;47.460;19.034;2023-05-10T15:14:03;1.20;;;0.70;;
41799;SDS011;27468;47.460;19.034;2023-05-10T15:16:29;1.42;;;0.90;;